powered by Meteolive.it
Dati meteo   Attuali  Passati Ogni 3 ore 7 Giorni 15 Giorni Avvisi Meteo Mappe meteo
Roma / Urbe, Italy
Alba: 7:32 AM UTC1
Tramonto: 5:09 PM UTC1
 Lat: 41.95N, Lon: 12.50E
ICAO Usato: LIRU
Condizioni Meteo Attuali Aggiornate: 22.01.2017 alle 17:50 LT
Parz Nuvoloso
Parz Nuvoloso
Parz Nuvoloso
N/D
Temp: 14°C
Umidita': 51%
Direz/Vel. Vento: E 04 KTS
Pressione: 1020 hPa
Punto di rugiada: 4°C
Temperatura percepita: 14°C
Visibilitą: >10 KM (ottima)
Temperatura percepita in
presenza di vento (Wind Chill)
:
14°C
T. max (ultime 24 ore): 15°C
T. min (ultime 24 ore): 3°C


METAR ORIGINALE
LIRU 221550Z 08004KT 9999 FEW045 14/04 Q1020